Time;durP1;ratioP1;P1;durP2;ratioP2;P2;SDS_P1;SDS_P2;PMS_P1;PMS_P2;Temp;Humidity;BMP_temperature;BMP_pressure;BME280_temperature;BME280_humidity;BME280_pressure;Samples;Min_cycle;Max_cycle;Signal;HPM_P1;HPM_P2
2023/12/20 10:00:50;;;;;;;3.30;1.17;;;;;;;6.20;100.00;98955.50;5171378;27;21066;-85
2023/12/20 10:03:20;;;;;;;1.87;1.40;;;;;;;6.56;100.00;98921.47;5136239;27;38620;-86
2023/12/20 10:05:49;;;;;;;5.20;1.40;;;;;;;7.51;100.00;98960.88;5135429;27;41710;-88
2023/12/20 10:08:36;;;;;;;2.10;1.20;;;;;;;8.13;100.00;98949.84;5136344;27;41835;-87
2023/12/20 10:11:22;;;;;;;4.73;1.50;;;;;;;8.63;100.00;98946.41;5135363;27;42627;-87
2023/12/20 10:13:49;;;;;;;4.13;1.30;;;;;;;8.97;98.92;98980.63;5135820;27;40680;-88
2023/12/20 10:16:25;;;;;;;1.80;1.17;;;;;;;8.91;95.50;98965.09;5135613;27;40811;-88
2023/12/20 10:19:09;;;;;;;1.97;0.93;;;;;;;9.05;94.17;98981.97;5135721;27;42689;-87
2023/12/20 10:21:40;;;;;;;5.93;1.37;;;;;;;9.01;90.86;98976.03;5134992;27;42206;-85
2023/12/20 10:24:37;;;;;;;3.20;1.20;;;;;;;9.17;90.96;98986.59;5135516;27;39395;-85
2023/12/20 10:27:10;;;;;;;3.73;1.30;;;;;;;9.22;90.09;98985.41;5135276;27;41622;-86
2023/12/20 10:29:59;;;;;;;2.80;1.20;;;;;;;9.51;89.39;98980.31;5117730;27;43581;-86
2023/12/20 10:32:37;;;;;;;2.47;1.10;;;;;;;10.10;86.94;98984.81;5122099;27;40932;-87
2023/12/20 10:35:25;;;;;;;6.27;1.60;;;;;;;10.53;85.08;98950.50;5114877;27;38652;-87
2023/12/20 10:38:33;;;;;;;4.13;1.20;;;;;;;11.92;78.78;98950.47;5114626;27;42487;-86
2023/12/20 10:41:05;;;;;;;5.43;1.10;;;;;;;12.24;74.45;98994.31;5114111;27;42855;-87
2023/12/20 10:43:33;;;;;;;2.23;0.97;;;;;;;11.81;73.12;98978.59;5127685;27;42195;-87
2023/12/20 10:46:21;;;;;;;2.60;1.20;;;;;;;11.47;72.84;98955.16;5131751;27;40146;-85
2023/12/20 10:48:55;;;;;;;2.77;0.80;;;;;;;11.44;74.84;98963.31;5130662;27;40695;-87
2023/12/20 10:52:10;;;;;;;2.17;1.00;;;;;;;11.19;71.16;98944.63;5131285;27;44096;-88
2023/12/20 10:54:54;;;;;;;5.60;1.33;;;;;;;11.58;69.12;98973.03;5094152;27;41821;-88
2023/12/20 10:57:22;;;;;;;2.10;1.07;;;;;;;11.98;70.37;98982.78;5099972;27;38778;-86
2023/12/20 10:59:54;;;;;;;4.03;1.30;;;;;;;12.03;67.42;98993.09;5131933;27;40928;-87
2023/12/20 11:02:28;;;;;;;2.13;1.23;;;;;;;11.77;67.40;98982.38;5131277;27;41842;-88
2023/12/20 11:05:13;;;;;;;1.80;1.00;;;;;;;11.46;68.85;98967.59;5131491;27;42206;-89
2023/12/20 11:10:44;;;;;;;4.00;1.23;;;;;;;10.85;69.57;98946.75;5141987;27;42438;-87
2023/12/20 11:13:44;;;;;;;3.10;0.97;;;;;;;10.88;71.56;98970.38;5106899;27;41902;-88
2023/12/20 11:16:15;;;;;;;2.53;1.23;;;;;;;10.34;72.23;98927.81;5117728;27;42336;-88
2023/12/20 11:18:43;;;;;;;2.70;1.00;;;;;;;10.27;73.83;98950.28;5117336;27;39190;-88
2023/12/20 11:21:49;;;;;;;2.57;1.07;;;;;;;9.86;75.42;98917.47;5117743;27;42027;-88
2023/12/20 11:24:37;;;;;;;2.80;1.43;;;;;;;9.71;76.17;98925.34;5117139;27;42192;-87
2023/12/20 11:27:24;;;;;;;3.80;1.50;;;;;;;9.69;77.23;98921.06;5117473;27;41821;-87
2023/12/20 11:30:40;;;;;;;2.90;1.30;;;;;;;9.49;77.12;98887.88;5131038;27;41616;-84
2023/12/20 11:36:21;;;;;;;3.03;1.10;;;;;;;9.60;77.13;98925.13;5136265;27;44071;-85
2023/12/20 11:39:13;;;;;;;3.20;1.43;;;;;;;9.17;76.44;98865.91;5135729;27;41388;-87
2023/12/20 11:41:41;;;;;;;3.90;1.13;;;;;;;9.38;76.82;98916.72;5133723;27;40033;-89
2023/12/20 11:44:49;;;;;;;2.83;1.07;;;;;;;9.18;76.03;98893.19;5117938;27;40947;-88
2023/12/20 11:47:53;;;;;;;2.63;1.37;;;;;;;9.17;76.22;98876.47;5117205;27;41806;-87
2023/12/20 11:50:23;;;;;;;2.30;1.00;;;;;;;9.17;75.87;98878.25;5100295;27;42570;-88
2023/12/20 11:53:02;;;;;;;2.60;1.27;;;;;;;9.44;74.52;98916.34;5115853;27;39139;-86
2023/12/20 11:55:31;;;;;;;5.00;1.40;;;;;;;9.36;75.91;98892.16;5112808;27;41637;-87
2023/12/20 11:57:58;;;;;;;4.67;1.50;;;;;;;9.29;75.50;98878.41;5117352;27;44175;-87
2023/12/20 12:03:07;;;;;;;3.13;1.53;;;;;;;9.49;72.99;98924.03;5116452;27;40051;-89
2023/12/20 12:08:36;;;;;;;2.87;1.20;;;;;;;9.53;73.17;98901.75;5096875;27;42454;-91
2023/12/20 12:15:02;;;;;;;8.10;1.30;;;;;;;9.15;71.42;98861.66;5072679;28;39707;-89
2023/12/20 12:17:55;;;;;;;1.63;0.93;;;;;;;9.10;71.46;98858.44;5042642;28;41774;-89
2023/12/20 12:20:23;;;;;;;3.93;1.23;;;;;;;9.42;71.01;98886.50;5058343;28;41917;-84
2023/12/20 12:23:08;;;;;;;2.77;1.37;;;;;;;9.53;68.22;98894.66;5058087;28;41189;-84
2023/12/20 12:25:37;;;;;;;2.37;1.00;;;;;;;9.79;67.80;98905.53;5058438;28;42289;-83
2023/12/20 12:28:21;;;;;;;3.50;1.17;;;;;;;9.93;67.40;98876.47;5058721;28;40824;-88
2023/12/20 12:30:57;;;;;;;3.07;1.13;;;;;;;10.46;67.29;98910.31;5054614;28;43476;-86
2023/12/20 12:33:26;;;;;;;2.10;1.10;;;;;;;10.58;66.67;98882.25;5038841;28;42329;-88
2023/12/20 12:35:53;;;;;;;3.60;1.13;;;;;;;10.83;65.20;98898.31;5069041;28;39566;-86
2023/12/20 12:38:23;;;;;;;2.30;1.00;;;;;;;10.99;65.29;98912.28;5058748;28;41012;-90
2023/12/20 12:40:53;;;;;;;2.80;1.10;;;;;;;10.85;63.12;98925.56;5066474;28;44161;-88
2023/12/20 12:43:24;;;;;;;3.33;1.10;;;;;;;10.38;62.73;98878.19;5058258;28;42700;-87
2023/12/20 12:45:57;;;;;;;3.43;1.30;;;;;;;10.57;63.08;98941.44;5074532;28;40062;-88
2023/12/20 12:48:25;;;;;;;3.77;1.00;;;;;;;10.36;64.41;98911.84;5075285;28;40911;-86
2023/12/20 12:50:54;;;;;;;3.20;1.30;;;;;;;10.28;64.11;98925.50;5074221;28;42679;-87
2023/12/20 12:53:21;;;;;;;1.77;1.10;;;;;;;10.02;64.40;98928.81;5074606;28;43738;-86
2023/12/20 12:55:54;;;;;;;2.33;1.10;;;;;;;9.79;64.71;98892.28;5074550;28;39292;-87
2023/12/20 12:58:25;;;;;;;4.13;1.20;;;;;;;9.97;65.39;98920.31;5075223;28;40948;-83
2023/12/20 13:00:52;;;;;;;5.07;1.30;;;;;;;9.43;64.00;98861.78;5074867;28;42882;-84
2023/12/20 13:03:20;;;;;;;4.77;1.47;;;;;;;9.55;65.35;98871.63;5092401;28;43165;-83
2023/12/20 13:05:48;;;;;;;2.17;0.90;;;;;;;9.50;65.50;98867.56;5074736;28;38729;-86
2023/12/20 13:08:18;;;;;;;2.07;1.20;;;;;;;9.69;65.89;98913.16;5075033;28;42300;-85
2023/12/20 13:10:46;;;;;;;1.03;0.83;;;;;;;9.73;65.88;98907.59;5074309;28;43834;-84
2023/12/20 13:13:15;;;;;;;1.63;1.20;;;;;;;9.69;66.17;98903.41;5074749;28;42252;-86
2023/12/20 13:15:50;;;;;;;5.43;1.30;;;;;;;9.57;66.62;98880.34;5074794;28;39485;-89
2023/12/20 13:18:18;;;;;;;2.77;1.33;;;;;;;9.46;67.48;98866.03;5075326;28;41579;-84
2023/12/20 13:21:06;;;;;;;2.77;1.20;;;;;;;9.46;67.66;98882.75;5074203;28;44384;-87
2023/12/20 13:23:34;;;;;;;2.47;1.70;;;;;;;9.27;67.82;98853.03;5091699;28;41774;-87
2023/12/20 13:26:03;;;;;;;1.63;1.00;;;;;;;9.42;68.06;98886.50;5074362;28;39926;-85
2023/12/20 13:28:33;;;;;;;5.50;1.30;;;;;;;9.36;68.22;98889.50;5074445;28;42042;-89
2023/12/20 13:31:04;;;;;;;4.23;1.30;;;;;;;9.26;67.83;98890.97;5074246;28;42808;-88
2023/12/20 13:36:20;;;;;;;3.43;1.60;;;;;;;9.06;69.00;98873.59;5096746;27;40140;-87
2023/12/20 13:39:11;;;;;;;5.57;1.40;;;;;;;8.96;69.42;98849.47;5115711;27;40967;-88
2023/12/20 13:41:38;;;;;;;3.73;1.67;;;;;;;8.74;69.65;98801.47;5114730;27;43269;-87
2023/12/20 13:44:06;;;;;;;3.17;1.40;;;;;;;8.86;68.84;98835.09;5115696;27;41725;-87
2023/12/20 13:46:37;;;;;;;4.97;1.30;;;;;;;8.82;69.00;98812.44;5114636;27;40547;-88
2023/12/20 13:49:04;;;;;;;1.93;1.20;;;;;;;8.85;69.01;98827.25;5115155;27;41110;-87
2023/12/20 13:51:35;;;;;;;3.93;1.67;;;;;;;8.42;69.76;98749.59;5115385;27;43267;-87
2023/12/20 13:54:21;;;;;;;2.60;1.30;;;;;;;8.77;70.27;98809.22;5114462;27;41421;-87
2023/12/20 13:56:49;;;;;;;5.00;1.33;;;;;;;8.63;70.90;98793.28;5129047;27;40873;-88
2023/12/20 13:59:39;;;;;;;3.90;1.33;;;;;;;8.64;70.66;98797.63;5115861;27;40556;-85
2023/12/20 14:02:08;;;;;;;3.73;1.40;;;;;;;8.76;71.20;98796.94;5114343;27;42090;-85
2023/12/20 14:04:35;;;;;;;6.23;1.53;;;;;;;8.86;70.79;98802.56;5097531;27;42272;-85
2023/12/20 14:09:47;;;;;;;3.80;1.50;;;;;;;8.49;70.25;98745.69;5095371;27;41670;-86
2023/12/20 14:12:15;;;;;;;3.27;1.20;;;;;;;8.82;69.87;98778.09;5096999;27;42192;-89
2023/12/20 14:14:45;;;;;;;6.73;1.60;;;;;;;8.81;70.14;98768.47;5097634;27;41296;-86
2023/12/20 14:17:31;;;;;;;4.10;1.73;;;;;;;8.96;69.83;98801.09;5114732;27;41184;-85
2023/12/20 14:19:59;;;;;;;3.87;1.20;;;;;;;8.70;69.69;98757.66;5114762;27;41297;-86
2023/12/20 14:22:29;;;;;;;3.03;1.63;;;;;;;8.90;70.43;98794.34;5114608;27;43584;-85
2023/12/20 14:24:59;;;;;;;3.07;1.30;;;;;;;8.70;70.82;98770.03;5097439;27;42728;-86
2023/12/20 14:27:28;;;;;;;3.63;1.67;;;;;;;8.89;70.85;98823.50;5114315;27;39057;-87
2023/12/20 14:29:56;;;;;;;4.90;1.90;;;;;;;8.85;70.76;98822.81;5114485;27;41364;-84
2023/12/20 14:32:26;;;;;;;4.53;1.60;;;;;;;8.86;70.66;98824.53;5114447;27;43299;-84
2023/12/20 14:34:59;;;;;;;4.77;1.40;;;;;;;8.67;70.36;98808.00;5099218;27;41336;-84
